sensor_id;sensor_type;location;lat;lon;timestamp;pressure;altitude;pressure_sealevel;temperature;humidity
10008;BME280;5043;41.766;26.204;2023-05-21T00:01:38;100580.72;;;17.31;100.00
10008;BME280;5043;41.766;26.204;2023-05-21T00:04:04;100518.44;;;16.88;100.00
10008;BME280;5043;41.766;26.204;2023-05-21T00:06:35;100570.59;;;17.34;100.00
10008;BME280;5043;41.766;26.204;2023-05-21T00:09:02;100513.56;;;17.01;100.00
10008;BME280;5043;41.766;26.204;2023-05-21T00:11:28;100525.97;;;17.18;100.00
10008;BME280;5043;41.766;26.204;2023-05-21T00:13:53;100526.25;;;17.07;99.97
10008;BME280;5043;41.766;26.204;2023-05-21T00:16:19;100507.22;;;17.02;99.40
10008;BME280;5043;41.766;26.204;2023-05-21T00:18:44;100566.13;;;17.35;99.63
10008;BME280;5043;41.766;26.204;2023-05-21T00:21:10;100500.59;;;17.06;99.95
10008;BME280;5043;41.766;26.204;2023-05-21T00:23:36;100558.31;;;17.41;99.60
10008;BME280;5043;41.766;26.204;2023-05-21T00:26:03;100555.75;;;17.32;99.79
10008;BME280;5043;41.766;26.204;2023-05-21T00:28:29;100553.00;;;17.24;100.00
10008;BME280;5043;41.766;26.204;2023-05-21T00:30:54;100557.75;;;17.30;100.00
10008;BME280;5043;41.766;26.204;2023-05-21T00:33:20;100561.25;;;17.30;100.00
10008;BME280;5043;41.766;26.204;2023-05-21T00:35:45;100531.44;;;17.09;100.00
10008;BME280;5043;41.766;26.204;2023-05-21T00:38:11;100499.09;;;16.86;100.00
10008;BME280;5043;41.766;26.204;2023-05-21T00:40:36;100558.81;;;17.19;100.00
10008;BME280;5043;41.766;26.204;2023-05-21T00:43:05;100576.63;;;17.18;100.00
10008;BME280;5043;41.766;26.204;2023-05-21T00:45:32;100541.72;;;17.04;100.00
10008;BME280;5043;41.766;26.204;2023-05-21T00:47:58;100548.63;;;17.14;100.00
10008;BME280;5043;41.766;26.204;2023-05-21T00:50:23;100557.28;;;17.16;100.00
10008;BME280;5043;41.766;26.204;2023-05-21T00:52:50;100551.00;;;17.17;100.00
10008;BME280;5043;41.766;26.204;2023-05-21T00:55:16;100485.06;;;16.76;100.00
10008;BME280;5043;41.766;26.204;2023-05-21T00:57:41;100543.75;;;17.10;100.00
10008;BME280;5043;41.766;26.204;2023-05-21T01:00:07;100548.59;;;17.06;100.00
10008;BME280;5043;41.766;26.204;2023-05-21T01:02:35;100506.31;;;16.68;100.00
10008;BME280;5043;41.766;26.204;2023-05-21T01:05:02;100468.75;;;16.44;100.00
10008;BME280;5043;41.766;26.204;2023-05-21T01:07:34;100530.78;;;16.89;100.00
10008;BME280;5043;41.766;26.204;2023-05-21T01:10:05;100532.81;;;16.95;100.00
10008;BME280;5043;41.766;26.204;2023-05-21T01:12:32;100545.16;;;16.96;100.00
10008;BME280;5043;41.766;26.204;2023-05-21T01:15:03;100558.13;;;16.91;100.00
10008;BME280;5043;41.766;26.204;2023-05-21T01:17:30;100534.22;;;16.82;100.00
10008;BME280;5043;41.766;26.204;2023-05-21T01:19:58;100526.47;;;16.71;100.00
10008;BME280;5043;41.766;26.204;2023-05-21T01:22:25;100554.00;;;16.79;100.00
10008;BME280;5043;41.766;26.204;2023-05-21T01:24:53;100536.28;;;16.70;100.00
10008;BME280;5043;41.766;26.204;2023-05-21T01:27:20;100538.91;;;16.62;100.00
10008;BME280;5043;41.766;26.204;2023-05-21T01:29:45;100514.25;;;16.50;100.00
10008;BME280;5043;41.766;26.204;2023-05-21T01:32:37;100511.50;;;16.52;100.00
10008;BME280;5043;41.766;26.204;2023-05-21T01:35:19;100511.31;;;16.54;100.00
10008;BME280;5043;41.766;26.204;2023-05-21T01:38:03;100542.06;;;16.66;100.00
10008;BME280;5043;41.766;26.204;2023-05-21T01:42:56;100397.06;;;15.72;100.00
10008;BME280;5043;41.766;26.204;2023-05-21T01:45:24;100493.19;;;16.39;100.00
10008;BME280;5043;41.766;26.204;2023-05-21T01:47:53;100487.03;;;16.39;100.00
10008;BME280;5043;41.766;26.204;2023-05-21T01:50:22;100548.69;;;16.79;100.00
10008;BME280;5043;41.766;26.204;2023-05-21T01:52:53;100558.41;;;16.88;100.00
10008;BME280;5043;41.766;26.204;2023-05-21T01:55:20;100551.34;;;16.79;100.00
10008;BME280;5043;41.766;26.204;2023-05-21T01:57:53;100537.25;;;16.87;100.00
10008;BME280;5043;41.766;26.204;2023-05-21T02:00:24;100538.56;;;16.83;100.00
10008;BME280;5043;41.766;26.204;2023-05-21T02:02:54;100524.66;;;16.71;100.00
10008;BME280;5043;41.766;26.204;2023-05-21T02:05:19;100534.22;;;16.82;100.00
10008;BME280;5043;41.766;26.204;2023-05-21T02:07:45;100539.38;;;16.83;100.00
10008;BME280;5043;41.766;26.204;2023-05-21T02:10:11;100544.97;;;16.72;100.00
10008;BME280;5043;41.766;26.204;2023-05-21T02:12:37;100536.13;;;16.72;100.00
10008;BME280;5043;41.766;26.204;2023-05-21T02:15:03;100533.56;;;16.62;100.00
10008;BME280;5043;41.766;26.204;2023-05-21T02:17:28;100515.31;;;16.05;100.00
10008;BME280;5043;41.766;26.204;2023-05-21T02:19:58;100545.31;;;16.42;100.00
10008;BME280;5043;41.766;26.204;2023-05-21T02:22:31;100516.63;;;16.36;100.00
10008;BME280;5043;41.766;26.204;2023-05-21T02:24:57;100548.19;;;16.48;100.00
10008;BME280;5043;41.766;26.204;2023-05-21T02:27:23;100491.97;;;16.16;100.00
10008;BME280;5043;41.766;26.204;2023-05-21T02:29:48;100545.59;;;16.39;100.00
10008;BME280;5043;41.766;26.204;2023-05-21T02:32:14;100556.06;;;16.50;100.00
10008;BME280;5043;41.766;26.204;2023-05-21T02:34:39;100549.50;;;16.44;100.00
10008;BME280;5043;41.766;26.204;2023-05-21T02:37:07;100574.59;;;16.42;100.00
10008;BME280;5043;41.766;26.204;2023-05-21T02:39:33;100571.19;;;16.49;100.00
10008;BME280;5043;41.766;26.204;2023-05-21T02:41:59;100500.34;;;16.21;100.00
10008;BME280;5043;41.766;26.204;2023-05-21T02:44:24;100534.81;;;16.40;100.00
10008;BME280;5043;41.766;26.204;2023-05-21T02:46:50;100535.41;;;16.34;100.00
10008;BME280;5043;41.766;26.204;2023-05-21T02:49:15;100440.31;;;15.74;100.00
10008;BME280;5043;41.766;26.204;2023-05-21T02:51:40;100543.09;;;16.37;100.00
10008;BME280;5043;41.766;26.204;2023-05-21T02:54:06;100565.84;;;16.32;100.00
10008;BME280;5043;41.766;26.204;2023-05-21T02:56:31;100538.41;;;16.31;100.00
10008;BME280;5043;41.766;26.204;2023-05-21T02:58:56;100514.41;;;16.14;100.00
10008;BME280;5043;41.766;26.204;2023-05-21T03:01:22;100567.91;;;16.38;100.00
10008;BME280;5043;41.766;26.204;2023-05-21T03:03:47;100578.94;;;16.43;100.00
10008;BME280;5043;41.766;26.204;2023-05-21T03:06:13;100567.22;;;16.36;100.00
10008;BME280;5043;41.766;26.204;2023-05-21T03:08:40;100544.06;;;16.36;100.00
10008;BME280;5043;41.766;26.204;2023-05-21T03:11:05;100557.03;;;16.49;100.00
10008;BME280;5043;41.766;26.204;2023-05-21T03:13:31;100563.66;;;16.45;100.00
10008;BME280;5043;41.766;26.204;2023-05-21T03:15:57;100567.84;;;16.47;100.00
10008;BME280;5043;41.766;26.204;2023-05-21T03:18:22;100563.50;;;16.46;100.00
10008;BME280;5043;41.766;26.204;2023-05-21T03:20:48;100559.84;;;16.47;100.00
10008;BME280;5043;41.766;26.204;2023-05-21T03:23:13;100578.34;;;16.49;100.00
10008;BME280;5043;41.766;26.204;2023-05-21T03:25:40;100509.53;;;15.92;100.00
10008;BME280;5043;41.766;26.204;2023-05-21T03:28:05;100549.63;;;16.25;100.00
10008;BME280;5043;41.766;26.204;2023-05-21T03:30:31;100534.16;;;16.11;100.00
10008;BME280;5043;41.766;26.204;2023-05-21T03:32:57;100559.13;;;16.28;100.00
10008;BME280;5043;41.766;26.204;2023-05-21T03:35:24;100556.66;;;16.44;100.00
10008;BME280;5043;41.766;26.204;2023-05-21T03:37:49;100580.97;;;16.59;100.00
10008;BME280;5043;41.766;26.204;2023-05-21T03:40:15;100574.66;;;16.60;100.00
10008;BME280;5043;41.766;26.204;2023-05-21T03:42:40;100569.38;;;16.50;100.00
10008;BME280;5043;41.766;26.204;2023-05-21T03:45:06;100552.84;;;16.46;100.00
10008;BME280;5043;41.766;26.204;2023-05-21T03:47:32;100483.38;;;16.05;100.00
10008;BME280;5043;41.766;26.204;2023-05-21T03:49:58;100591.94;;;16.73;100.00
10008;BME280;5043;41.766;26.204;2023-05-21T03:52:23;100570.63;;;16.73;100.00
10008;BME280;5043;41.766;26.204;2023-05-21T03:54:48;100489.41;;;16.24;100.00
10008;BME280;5043;41.766;26.204;2023-05-21T03:57:14;100547.03;;;16.61;100.00
10008;BME280;5043;41.766;26.204;2023-05-21T03:59:40;100537.97;;;16.54;100.00
10008;BME280;5043;41.766;26.204;2023-05-21T04:02:05;100592.63;;;16.75;100.00
10008;BME280;5043;41.766;26.204;2023-05-21T04:04:31;100564.22;;;16.84;100.00
10008;BME280;5043;41.766;26.204;2023-05-21T04:06:57;100578.50;;;17.00;100.00
10008;BME280;5043;41.766;26.204;2023-05-21T04:09:23;100589.25;;;17.08;100.00
10008;BME280;5043;41.766;26.204;2023-05-21T04:11:49;100586.88;;;17.05;100.00
10008;BME280;5043;41.766;26.204;2023-05-21T04:14:15;100523.09;;;16.86;100.00
10008;BME280;5043;41.766;26.204;2023-05-21T04:16:40;100530.41;;;16.84;100.00
10008;BME280;5043;41.766;26.204;2023-05-21T04:19:08;100609.47;;;17.19;100.00
10008;BME280;5043;41.766;26.204;2023-05-21T04:21:33;100601.47;;;17.19;100.00
10008;BME280;5043;41.766;26.204;2023-05-21T04:24:00;100593.19;;;17.22;100.00
10008;BME280;5043;41.766;26.204;2023-05-21T04:26:26;100529.16;;;16.96;100.00
10008;BME280;5043;41.766;26.204;2023-05-21T04:28:52;100538.38;;;17.02;100.00
10008;BME280;5043;41.766;26.204;2023-05-21T04:31:18;100582.13;;;17.35;100.00
10008;BME280;5043;41.766;26.204;2023-05-21T04:33:44;100585.47;;;17.37;100.00
10008;BME280;5043;41.766;26.204;2023-05-21T04:36:10;100522.53;;;17.00;100.00
10008;BME280;5043;41.766;26.204;2023-05-21T04:38:36;100612.97;;;17.37;100.00
10008;BME280;5043;41.766;26.204;2023-05-21T04:41:03;100594.88;;;17.49;100.00
10008;BME280;5043;41.766;26.204;2023-05-21T04:43:29;100602.28;;;17.55;100.00
10008;BME280;5043;41.766;26.204;2023-05-21T04:45:54;100552.41;;;17.30;100.00
10008;BME280;5043;41.766;26.204;2023-05-21T04:48:22;100598.16;;;17.60;100.00
10008;BME280;5043;41.766;26.204;2023-05-21T04:50:49;100535.97;;;17.16;100.00
10008;BME280;5043;41.766;26.204;2023-05-21T04:53:15;100496.44;;;16.86;100.00
10008;BME280;5043;41.766;26.204;2023-05-21T04:55:41;100604.53;;;17.50;100.00
10008;BME280;5043;41.766;26.204;2023-05-21T04:58:06;100592.50;;;17.46;100.00
10008;BME280;5043;41.766;26.204;2023-05-21T05:00:33;100605.97;;;17.62;100.00
10008;BME280;5043;41.766;26.204;2023-05-21T05:02:58;100623.34;;;17.66;100.00
10008;BME280;5043;41.766;26.204;2023-05-21T05:05:24;100626.06;;;17.74;100.00
10008;BME280;5043;41.766;26.204;2023-05-21T05:07:50;100595.50;;;17.68;100.00
10008;BME280;5043;41.766;26.204;2023-05-21T05:10:16;100573.78;;;17.63;100.00
10008;BME280;5043;41.766;26.204;2023-05-21T05:12:41;100612.31;;;17.95;100.00
10008;BME280;5043;41.766;26.204;2023-05-21T05:15:07;100615.66;;;17.89;100.00
10008;BME280;5043;41.766;26.204;2023-05-21T05:17:34;100615.34;;;18.00;100.00
10008;BME280;5043;41.766;26.204;2023-05-21T05:20:00;100597.28;;;17.85;100.00
10008;BME280;5043;41.766;26.204;2023-05-21T05:22:26;100624.09;;;18.10;100.00
10008;BME280;5043;41.766;26.204;2023-05-21T05:24:51;100638.19;;;17.94;100.00
10008;BME280;5043;41.766;26.204;2023-05-21T05:27:17;100597.47;;;17.92;100.00
10008;BME280;5043;41.766;26.204;2023-05-21T05:29:43;100615.34;;;18.00;100.00
10008;BME280;5043;41.766;26.204;2023-05-21T05:32:09;100591.16;;;17.93;100.00
10008;BME280;5043;41.766;26.204;2023-05-21T05:34:34;100610.94;;;18.24;100.00
10008;BME280;5043;41.766;26.204;2023-05-21T05:37:00;100614.34;;;18.42;100.00
10008;BME280;5043;41.766;26.204;2023-05-21T05:39:27;100603.34;;;18.45;98.40
10008;BME280;5043;41.766;26.204;2023-05-21T05:41:52;100561.38;;;18.30;97.76
10008;BME280;5043;41.766;26.204;2023-05-21T05:44:18;100571.91;;;18.31;97.72
10008;BME280;5043;41.766;26.204;2023-05-21T05:46:43;100633.66;;;18.70;97.96
10008;BME280;5043;41.766;26.204;2023-05-21T05:49:09;100635.66;;;18.68;97.17
10008;BME280;5043;41.766;26.204;2023-05-21T05:51:34;100619.44;;;18.70;97.83
10008;BME280;5043;41.766;26.204;2023-05-21T05:54:00;100624.13;;;18.76;98.08
10008;BME280;5043;41.766;26.204;2023-05-21T05:56:25;100596.88;;;18.64;98.35
10008;BME280;5043;41.766;26.204;2023-05-21T05:58:51;100623.50;;;18.82;99.39
10008;BME280;5043;41.766;26.204;2023-05-21T06:01:18;100611.59;;;18.76;97.43
10008;BME280;5043;41.766;26.204;2023-05-21T06:03:45;100630.34;;;18.92;95.99
10008;BME280;5043;41.766;26.204;2023-05-21T06:06:11;100646.22;;;18.86;97.08
10008;BME280;5043;41.766;26.204;2023-05-21T06:08:37;100653.41;;;18.93;96.84
10008;BME280;5043;41.766;26.204;2023-05-21T06:11:04;100621.66;;;18.98;96.21
10008;BME280;5043;41.766;26.204;2023-05-21T06:13:30;100566.66;;;18.64;95.70
10008;BME280;5043;41.766;26.204;2023-05-21T06:15:56;100622.00;;;19.11;95.05
10008;BME280;5043;41.766;26.204;2023-05-21T06:18:21;100618.81;;;19.16;95.29
10008;BME280;5043;41.766;26.204;2023-05-21T06:20:47;100553.31;;;18.80;96.41
10008;BME280;5043;41.766;26.204;2023-05-21T06:23:12;100625.53;;;19.20;96.24
10008;BME280;5043;41.766;26.204;2023-05-21T06:25:38;100624.66;;;19.28;96.39
10008;BME280;5043;41.766;26.204;2023-05-21T06:28:04;100560.00;;;19.00;95.11
10008;BME280;5043;41.766;26.204;2023-05-21T06:30:30;100575.03;;;19.09;95.06
10008;BME280;5043;41.766;26.204;2023-05-21T06:32:55;100622.19;;;19.50;94.43
10008;BME280;5043;41.766;26.204;2023-05-21T06:35:22;100623.19;;;19.57;93.36
10008;BME280;5043;41.766;26.204;2023-05-21T06:37:47;100569.00;;;19.47;92.32
10008;BME280;5043;41.766;26.204;2023-05-21T06:40:13;100628.63;;;19.88;91.11
10008;BME280;5043;41.766;26.204;2023-05-21T06:42:38;100615.13;;;20.12;89.50
10008;BME280;5043;41.766;26.204;2023-05-21T06:45:04;100526.91;;;19.72;88.29
10008;BME280;5043;41.766;26.204;2023-05-21T06:47:30;100615.75;;;20.61;87.32
10008;BME280;5043;41.766;26.204;2023-05-21T06:49:55;100624.75;;;20.68;86.25
10008;BME280;5043;41.766;26.204;2023-05-21T06:52:20;100619.47;;;20.60;84.58
10008;BME280;5043;41.766;26.204;2023-05-21T06:54:46;100628.69;;;20.58;84.43
10008;BME280;5043;41.766;26.204;2023-05-21T06:57:14;100621.25;;;20.68;84.15
10008;BME280;5043;41.766;26.204;2023-05-21T06:59:40;100627.22;;;20.78;84.45
10008;BME280;5043;41.766;26.204;2023-05-21T07:02:06;100627.41;;;20.76;83.90
10008;BME280;5043;41.766;26.204;2023-05-21T07:04:32;100616.19;;;20.95;83.83
10008;BME280;5043;41.766;26.204;2023-05-21T07:07:00;100618.28;;;21.08;83.42
10008;BME280;5043;41.766;26.204;2023-05-21T07:09:26;100613.97;;;20.99;83.24
10008;BME280;5043;41.766;26.204;2023-05-21T07:11:52;100619.28;;;20.84;82.64
10008;BME280;5043;41.766;26.204;2023-05-21T07:14:18;100614.16;;;20.97;83.67
10008;BME280;5043;41.766;26.204;2023-05-21T07:16:44;100606.81;;;20.91;84.10
10008;BME280;5043;41.766;26.204;2023-05-21T07:19:09;100619.19;;;21.00;82.34
10008;BME280;5043;41.766;26.204;2023-05-21T07:21:34;100626.28;;;21.16;82.00
10008;BME280;5043;41.766;26.204;2023-05-21T07:24:00;100593.25;;;21.15;80.29
10008;BME280;5043;41.766;26.204;2023-05-21T07:26:25;100546.81;;;20.92;79.56
10008;BME280;5043;41.766;26.204;2023-05-21T07:28:51;100579.91;;;21.07;79.94
10008;BME280;5043;41.766;26.204;2023-05-21T07:31:16;100608.06;;;21.11;82.43
10008;BME280;5043;41.766;26.204;2023-05-21T07:33:42;100607.97;;;21.19;80.84
10008;BME280;5043;41.766;26.204;2023-05-21T07:36:07;100611.88;;;21.17;80.58
10008;BME280;5043;41.766;26.204;2023-05-21T07:38:33;100561.34;;;20.98;79.63
10008;BME280;5043;41.766;26.204;2023-05-21T07:40:58;100609.53;;;21.14;79.82
10008;BME280;5043;41.766;26.204;2023-05-21T07:43:24;100632.00;;;21.36;78.49
10008;BME280;5043;41.766;26.204;2023-05-21T07:45:49;100573.81;;;21.13;78.93
10008;BME280;5043;41.766;26.204;2023-05-21T07:48:15;100593.09;;;21.32;78.88
10008;BME280;5043;41.766;26.204;2023-05-21T07:50:41;100620.47;;;21.50;78.49
10008;BME280;5043;41.766;26.204;2023-05-21T07:53:07;100577.44;;;21.20;79.56
10008;BME280;5043;41.766;26.204;2023-05-21T07:55:33;100615.34;;;21.40;79.39
10008;BME280;5043;41.766;26.204;2023-05-21T07:57:59;100624.81;;;21.65;79.92
10008;BME280;5043;41.766;26.204;2023-05-21T08:00:26;100534.22;;;21.15;77.96
10008;BME280;5043;41.766;26.204;2023-05-21T08:02:51;100591.84;;;21.42;77.41
10008;BME280;5043;41.766;26.204;2023-05-21T08:05:17;100587.69;;;21.54;78.08
10008;BME280;5043;41.766;26.204;2023-05-21T08:07:42;100609.22;;;21.98;77.40
10008;BME280;5043;41.766;26.204;2023-05-21T08:10:08;100575.66;;;22.09;76.64
10008;BME280;5043;41.766;26.204;2023-05-21T08:12:34;100618.25;;;22.41;74.83
10008;BME280;5043;41.766;26.204;2023-05-21T08:14:59;100562.97;;;22.17;75.66
10008;BME280;5043;41.766;26.204;2023-05-21T08:17:25;100610.53;;;22.52;75.88
10008;BME280;5043;41.766;26.204;2023-05-21T08:19:52;100615.06;;;22.52;76.36
10008;BME280;5043;41.766;26.204;2023-05-21T08:22:18;100605.03;;;22.61;72.97
10008;BME280;5043;41.766;26.204;2023-05-21T08:24:43;100548.34;;;22.41;70.81
10008;BME280;5043;41.766;26.204;2023-05-21T08:27:08;100592.66;;;22.81;67.66
10008;BME280;5043;41.766;26.204;2023-05-21T08:29:34;100581.47;;;22.84;70.78
10008;BME280;5043;41.766;26.204;2023-05-21T08:32:00;100601.41;;;23.10;68.57
10008;BME280;5043;41.766;26.204;2023-05-21T08:34:26;100552.94;;;22.83;60.08
10008;BME280;5043;41.766;26.204;2023-05-21T08:36:51;100590.56;;;23.25;60.99
10008;BME280;5043;41.766;26.204;2023-05-21T08:39:18;100576.94;;;23.33;55.93
10008;BME280;5043;41.766;26.204;2023-05-21T08:41:44;100579.78;;;23.46;54.15
10008;BME280;5043;41.766;26.204;2023-05-21T08:44:14;100586.22;;;23.52;54.59
10008;BME280;5043;41.766;26.204;2023-05-21T08:46:44;100557.03;;;23.55;53.53
10008;BME280;5043;41.766;26.204;2023-05-21T08:49:11;100584.22;;;23.94;50.88
10008;BME280;5043;41.766;26.204;2023-05-21T08:51:38;100529.72;;;23.58;51.34
10008;BME280;5043;41.766;26.204;2023-05-21T08:54:04;100567.38;;;23.86;51.71
10008;BME280;5043;41.766;26.204;2023-05-21T08:56:33;100524.38;;;23.71;51.23
10008;BME280;5043;41.766;26.204;2023-05-21T08:59:00;100535.88;;;23.86;51.51
10008;BME280;5043;41.766;26.204;2023-05-21T09:01:26;100556.59;;;23.86;52.55
10008;BME280;5043;41.766;26.204;2023-05-21T09:03:55;100592.47;;;23.86;52.00
10008;BME280;5043;41.766;26.204;2023-05-21T09:06:22;100565.72;;;23.85;52.97
10008;BME280;5043;41.766;26.204;2023-05-21T09:08:55;100587.66;;;24.10;53.60
10008;BME280;5043;41.766;26.204;2023-05-21T09:11:23;100584.69;;;23.70;56.50
10008;BME280;5043;41.766;26.204;2023-05-21T09:13:51;100567.00;;;23.61;58.61
10008;BME280;5043;41.766;26.204;2023-05-21T09:16:17;100584.28;;;23.73;57.43
10008;BME280;5043;41.766;26.204;2023-05-21T09:18:42;100599.69;;;23.79;57.66
10008;BME280;5043;41.766;26.204;2023-05-21T09:23:56;100597.91;;;23.93;61.90
10008;BME280;5043;41.766;26.204;2023-05-21T09:26:22;100559.00;;;23.68;62.47
10008;BME280;5043;41.766;26.204;2023-05-21T09:28:48;100556.16;;;23.82;58.82
10008;BME280;5043;41.766;26.204;2023-05-21T09:31:14;100544.75;;;23.80;57.06
10008;BME280;5043;41.766;26.204;2023-05-21T09:33:46;100598.25;;;24.18;56.39
10008;BME280;5043;41.766;26.204;2023-05-21T09:36:19;100606.53;;;24.10;57.71
10008;BME280;5043;41.766;26.204;2023-05-21T09:38:47;100603.09;;;24.01;59.18
10008;BME280;5043;41.766;26.204;2023-05-21T09:41:13;100539.63;;;23.92;59.29
10008;BME280;5043;41.766;26.204;2023-05-21T09:43:41;100589.78;;;24.27;56.52
10008;BME280;5043;41.766;26.204;2023-05-21T09:46:08;100541.38;;;24.13;54.40
10008;BME280;5043;41.766;26.204;2023-05-21T09:51:12;100584.69;;;24.58;52.00
10008;BME280;5043;41.766;26.204;2023-05-21T09:53:54;100582.22;;;24.64;54.42
10008;BME280;5043;41.766;26.204;2023-05-21T09:56:26;100596.75;;;24.69;54.26
10008;BME280;5043;41.766;26.204;2023-05-21T09:58:54;100528.06;;;24.78;50.57
10008;BME280;5043;41.766;26.204;2023-05-21T10:01:21;100487.81;;;24.83;48.23
10008;BME280;5043;41.766;26.204;2023-05-21T10:03:51;100533.50;;;25.17;46.01
10008;BME280;5043;41.766;26.204;2023-05-21T10:06:19;100574.97;;;25.82;45.53
10008;BME280;5043;41.766;26.204;2023-05-21T10:08:47;100570.28;;;26.22;43.83
10008;BME280;5043;41.766;26.204;2023-05-21T10:11:16;100545.63;;;25.92;42.55
10008;BME280;5043;41.766;26.204;2023-05-21T10:13:44;100524.06;;;25.66;41.57
10008;BME280;5043;41.766;26.204;2023-05-21T10:16:14;100569.53;;;25.88;41.00
10008;BME280;5043;41.766;26.204;2023-05-21T10:18:41;100556.81;;;26.02;42.14
10008;BME280;5043;41.766;26.204;2023-05-21T10:21:07;100562.19;;;26.09;42.70
10008;BME280;5043;41.766;26.204;2023-05-21T10:23:35;100569.69;;;26.07;40.17
10008;BME280;5043;41.766;26.204;2023-05-21T10:26:01;100575.91;;;26.20;40.02
10008;BME280;5043;41.766;26.204;2023-05-21T10:28:29;100552.97;;;26.29;41.47
10008;BME280;5043;41.766;26.204;2023-05-21T10:30:55;100574.91;;;26.52;40.62
10008;BME280;5043;41.766;26.204;2023-05-21T10:33:22;100556.06;;;26.77;40.56
10008;BME280;5043;41.766;26.204;2023-05-21T10:35:50;100544.22;;;26.65;40.05
10008;BME280;5043;41.766;26.204;2023-05-21T10:38:17;100557.97;;;26.32;39.03
10008;BME280;5043;41.766;26.204;2023-05-21T10:40:43;100562.25;;;26.46;39.99
10008;BME280;5043;41.766;26.204;2023-05-21T10:46:20;100565.56;;;26.04;37.62
10008;BME280;5043;41.766;26.204;2023-05-21T10:52:03;100556.75;;;25.45;39.16
10008;BME280;5043;41.766;26.204;2023-05-21T10:54:50;100564.03;;;25.44;39.72
10008;BME280;5043;41.766;26.204;2023-05-21T10:59:58;100501.50;;;24.75;40.14
10008;BME280;5043;41.766;26.204;2023-05-21T11:02:26;100566.72;;;24.92;41.36
10008;BME280;5043;41.766;26.204;2023-05-21T11:05:00;100557.97;;;24.83;41.27
10008;BME280;5043;41.766;26.204;2023-05-21T11:07:51;100563.13;;;24.65;40.82
10008;BME280;5043;41.766;26.204;2023-05-21T11:10:38;100548.16;;;24.56;41.87
10008;BME280;5043;41.766;26.204;2023-05-21T11:13:14;100563.75;;;24.60;43.36
10008;BME280;5043;41.766;26.204;2023-05-21T11:21:04;100551.88;;;24.48;43.15
10008;BME280;5043;41.766;26.204;2023-05-21T11:23:59;100554.19;;;24.58;42.75
10008;BME280;5043;41.766;26.204;2023-05-21T11:29:19;100551.47;;;24.45;42.54
10008;BME280;5043;41.766;26.204;2023-05-21T11:32:00;100510.31;;;24.23;43.00
10008;BME280;5043;41.766;26.204;2023-05-21T11:34:39;100541.81;;;24.10;44.16
10008;BME280;5043;41.766;26.204;2023-05-21T11:39:45;100558.72;;;24.38;42.87
10008;BME280;5043;41.766;26.204;2023-05-21T11:42:11;100554.31;;;24.30;43.16
10008;BME280;5043;41.766;26.204;2023-05-21T11:44:45;100557.22;;;24.29;44.10
10008;BME280;5043;41.766;26.204;2023-05-21T11:47:12;100552.47;;;24.37;44.37
10008;BME280;5043;41.766;26.204;2023-05-21T11:49:42;100549.78;;;24.31;45.42
10008;BME280;5043;41.766;26.204;2023-05-21T11:52:10;100551.63;;;24.24;43.08
10008;BME280;5043;41.766;26.204;2023-05-21T11:54:46;100526.81;;;24.01;42.54
10008;BME280;5043;41.766;26.204;2023-05-21T11:57:16;100457.78;;;23.59;43.13
10008;BME280;5043;41.766;26.204;2023-05-21T11:59:43;100540.66;;;23.91;43.81
10008;BME280;5043;41.766;26.204;2023-05-21T12:02:17;100534.47;;;23.97;43.49
10008;BME280;5043;41.766;26.204;2023-05-21T12:04:44;100535.88;;;23.86;44.58
10008;BME280;5043;41.766;26.204;2023-05-21T12:07:10;100548.69;;;23.84;44.49
10008;BME280;5043;41.766;26.204;2023-05-21T12:09:39;100555.75;;;23.85;44.13
10008;BME280;5043;41.766;26.204;2023-05-21T12:12:08;100539.38;;;23.87;57.33
10008;BME280;5043;41.766;26.204;2023-05-21T12:14:34;100541.28;;;23.52;70.81
10008;BME280;5043;41.766;26.204;2023-05-21T12:17:04;100520.94;;;23.22;73.68
10008;BME280;5043;41.766;26.204;2023-05-21T12:19:32;100511.59;;;23.18;73.14
10008;BME280;5043;41.766;26.204;2023-05-21T12:22:02;100523.59;;;23.15;73.20
10008;BME280;5043;41.766;26.204;2023-05-21T12:24:29;100502.19;;;23.07;74.21
10008;BME280;5043;41.766;26.204;2023-05-21T12:26:59;100484.28;;;22.93;70.50
10008;BME280;5043;41.766;26.204;2023-05-21T12:29:30;100509.25;;;23.08;61.52
10008;BME280;5043;41.766;26.204;2023-05-21T12:32:00;100503.72;;;23.16;49.21
10008;BME280;5043;41.766;26.204;2023-05-21T12:37:06;100501.63;;;23.40;46.43
10008;BME280;5043;41.766;26.204;2023-05-21T12:39:39;100483.91;;;23.31;47.16
10008;BME280;5043;41.766;26.204;2023-05-21T12:42:06;100497.75;;;23.49;46.97
10008;BME280;5043;41.766;26.204;2023-05-21T12:44:32;100500.09;;;23.58;45.92
10008;BME280;5043;41.766;26.204;2023-05-21T12:46:58;100404.31;;;23.15;45.71
10008;BME280;5043;41.766;26.204;2023-05-21T12:49:49;100496.22;;;23.74;45.37
10008;BME280;5043;41.766;26.204;2023-05-21T12:52:19;100493.56;;;23.87;44.50
10008;BME280;5043;41.766;26.204;2023-05-21T12:54:52;100489.47;;;23.91;44.85
10008;BME280;5043;41.766;26.204;2023-05-21T12:57:25;100492.16;;;23.91;45.21
10008;BME280;5043;41.766;26.204;2023-05-21T12:59:56;100439.16;;;23.64;45.46
10008;BME280;5043;41.766;26.204;2023-05-21T13:04:52;100484.13;;;24.11;45.46
10008;BME280;5043;41.766;26.204;2023-05-21T13:07:18;100488.91;;;24.09;45.23
10008;BME280;5043;41.766;26.204;2023-05-21T13:09:44;100476.28;;;24.16;45.40
10008;BME280;5043;41.766;26.204;2023-05-21T13:12:11;100472.16;;;24.26;45.56
10008;BME280;5043;41.766;26.204;2023-05-21T13:14:37;100477.78;;;24.38;46.04
10008;BME280;5043;41.766;26.204;2023-05-21T13:17:02;100489.66;;;24.50;45.93
10008;BME280;5043;41.766;26.204;2023-05-21T13:19:28;100477.59;;;24.59;45.96